This is the latest recevied weather packets stored in our database for station/object JE0GNV-13. If no packets are shown the sender has not sent any weather packets the latest 1 day(s).
| Time | Temp. | Humidity | Pressure | Rain* | Wind** | Luminosity | Snow |
|---|---|---|---|---|---|---|---|
| 1778116801 | 20.56° C | 63% | 1012.2 hPa | 0 mm | - | - | - |
| 1778116201 | 20.56° C | 60% | 1012.2 hPa | 0 mm | - | - | - |
| 1778115601 | 20.56° C | 64% | 1012.3 hPa | 0 mm | - | - | - |
| 1778113201 | 18.89° C | 68% | 1012.8 hPa | 0 mm | - | - | - |
| 1778112601 | 18.89° C | 67% | 1012.8 hPa | 0 mm | - | - | - |
| 1778109602 | 17.22° C | 76% | 1013.8 hPa | 0 mm | - | - | - |
| 1778109001 | 16.67° C | 81% | 1013.8 hPa | 0 mm | - | - | - |
| 1778108401 | 15.56° C | 83% | 1014.1 hPa | 0 mm | - | - | - |
| 1778104801 | 12.22° C | 92% | 1014.7 hPa | 0 mm | - | - | - |
| 1778098801 | 9.44° C | 96% | 1014.4 hPa | 0 mm | - | - | - |
| 1778098202 | 9.44° C | 94% | 1014.4 hPa | 0 mm | - | - | - |
| 1778091001 | 11.67° C | 92% | 1014.9 hPa | 0 mm | - | - | - |
| 1778088001 | 12.78° C | 91% | 1015.1 hPa | 0 mm | - | - | - |
| 1778087401 | 12.22° C | 91% | 1015.1 hPa | 0 mm | - | - | - |
| 1778084402 | 12.22° C | 91% | 1015.6 hPa | 0 mm | - | - | - |
| 1778082002 | 12.78° C | 91% | 1015.8 hPa | 0 mm | - | - | - |
| 1778076602 | 12.22° C | 91% | 1016.1 hPa | 0 mm | - | - | - |
| 1778073601 | 11.67° C | 91% | 1016.3 hPa | 0 mm | - | - | - |
| 1778073001 | 11.67° C | 91% | 1016.3 hPa | 0 mm | - | - | - |
| 1778068801 | 12.78° C | 88% | 1016.5 hPa | 0 mm | - | - | - |
| 1778068201 | 12.78° C | 88% | 1016.3 hPa | 0 mm | - | - | - |
| 1778067001 | 12.78° C | 86% | 1016.3 hPa | 0 mm | - | - | - |
| 1778064600 | 13.33° C | 84% | 1016 hPa | 0 mm | - | - | - |
| 1778062201 | 13.89° C | 83% | 1016.1 hPa | 0 mm | - | - | - |
| 1778059201 | 15° C | 75% | 1015.8 hPa | 0 mm | - | - | - |
* Rain latest hour (hover to see other rain measurements)
** Current wind speed in m/s (hover to see current wind gust speed)